Time;durP1;ratioP1;P1;durP2;ratioP2;P2;SDS_P1;SDS_P2;PMS_P1;PMS_P2;Temp;Humidity;BMP_temperature;BMP_pressure;BME280_temperature;BME280_humidity;BME280_pressure;Samples;Min_cycle;Max_cycle;Signal;HPM_P1;HPM_P2
2022/06/07 00:01:12;;;;;;;;;;;13.40;99.90;;;;;;5076898;28;19955;-63
2022/06/07 00:03:38;;;;;;;;;;;13.20;99.90;;;;;;5066631;28;19920;-63
2022/06/07 00:06:03;;;;;;;;;;;13.20;99.90;;;;;;5069552;28;19940;-62
2022/06/07 00:08:30;;;;;;;;;;;13.20;99.90;;;;;;5046900;28;20207;-63
2022/06/07 00:10:55;;;;;;;;;;;13.00;99.90;;;;;;5070832;28;19958;-63
2022/06/07 00:13:21;;;;;;;;;;;13.00;99.90;;;;;;5068394;28;20194;-63
2022/06/07 00:15:47;;;;;;;;;;;12.80;99.90;;;;;;5061991;28;20436;-63
2022/06/07 00:18:12;;;;;;;;;;;12.80;99.90;;;;;;5066167;28;19967;-62
2022/06/07 00:20:39;;;;;;;;;;;12.80;99.90;;;;;;5067715;28;19971;-63
2022/06/07 00:23:06;;;;;;;;;;;12.70;99.90;;;;;;5042872;28;19924;-63
2022/06/07 00:25:31;;;;;;;;;;;12.60;99.90;;;;;;5066357;28;19912;-64
2022/06/07 00:27:57;;;;;;;;;;;12.60;99.90;;;;;;5064867;28;19920;-64
2022/06/07 00:30:23;;;;;;;;;;;12.50;99.90;;;;;;5062075;28;19912;-65
2022/06/07 00:32:48;;;;;;;;;;;12.40;99.90;;;;;;5068176;28;19920;-65
2022/06/07 00:35:15;;;;;;;;;;;12.40;99.90;;;;;;5063699;28;19938;-64
2022/06/07 00:37:40;;;;;;;;;;;12.30;99.90;;;;;;5072949;28;19921;-64
2022/06/07 00:40:06;;;;;;;;;;;12.20;99.90;;;;;;5076724;28;19976;-63
2022/06/07 00:42:32;;;;;;;;;;;12.20;99.90;;;;;;5073858;28;19973;-64
2022/06/07 00:44:58;;;;;;;;;;;12.20;99.90;;;;;;5066269;28;20003;-64
2022/06/07 00:47:25;;;;;;;;;;;12.40;99.90;;;;;;5069095;28;19931;-63
2022/06/07 00:49:53;;;;;;;;;;;12.40;99.90;;;;;;5068368;28;19928;-63
2022/06/07 00:52:20;;;;;;;;;;;12.30;99.90;;;;;;5071824;28;19920;-63
2022/06/07 00:54:46;;;;;;;;;;;12.20;99.90;;;;;;5067640;28;19913;-64
2022/06/07 00:57:12;;;;;;;;;;;12.00;99.90;;;;;;5068686;28;19962;-64
2022/06/07 00:59:37;;;;;;;;;;;12.00;99.90;;;;;;5071817;28;20015;-63
2022/06/07 01:02:03;;;;;;;;;;;12.00;99.90;;;;;;5067020;28;20325;-64
2022/06/07 01:04:29;;;;;;;;;;;12.00;99.90;;;;;;5073846;28;19916;-63
2022/06/07 01:12:24;;;;;;;;;;;11.80;99.90;;;;;;5073817;28;19919;-63
2022/06/07 01:14:50;;;;;;;;;;;11.80;99.90;;;;;;5071390;28;19984;-63
2022/06/07 01:17:17;;;;;;;;;;;11.70;99.90;;;;;;5066902;28;19973;-64
2022/06/07 01:19:43;;;;;;;;;;;11.60;99.90;;;;;;5047497;28;19912;-64
2022/06/07 01:22:09;;;;;;;;;;;11.60;99.90;;;;;;5066831;28;20262;-64
2022/06/07 01:24:36;;;;;;;;;;;11.50;99.90;;;;;;5057532;28;19917;-63
2022/06/07 01:27:02;;;;;;;;;;;11.40;99.90;;;;;;5061969;28;19977;-64
2022/06/07 01:29:27;;;;;;;;;;;11.50;99.90;;;;;;5062092;28;19956;-64
2022/06/07 01:31:53;;;;;;;;;;;11.50;99.90;;;;;;5077383;28;19939;-63
2022/06/07 01:34:18;;;;;;;;;;;11.50;99.90;;;;;;5079948;28;19919;-63
2022/06/07 01:36:44;;;;;;;;;;;11.50;99.90;;;;;;5082658;28;19920;-64
2022/06/07 01:41:54;;;;;;;;;;;11.20;99.90;;;;;;5081188;28;19922;-63
2022/06/07 01:44:40;;;;;;;;;;;11.20;99.90;;;;;;5083029;28;19920;-64
2022/06/07 01:47:07;;;;;;;;;;;11.20;99.90;;;;;;5079627;28;19994;-64
2022/06/07 01:49:33;;;;;;;;;;;11.20;99.90;;;;;;5081594;28;19935;-63
2022/06/07 01:51:59;;;;;;;;;;;11.20;99.90;;;;;;5082995;28;19917;-63
2022/06/07 01:54:25;;;;;;;;;;;11.10;99.90;;;;;;5082428;28;20394;-63
2022/06/07 01:56:50;;;;;;;;;;;11.10;99.90;;;;;;5084661;28;19921;-64
2022/06/07 01:59:17;;;;;;;;;;;11.10;99.90;;;;;;5063048;28;19991;-63
2022/06/07 02:01:43;;;;;;;;;;;11.00;99.90;;;;;;5078992;28;19951;-63
2022/06/07 02:04:10;;;;;;;;;;;11.00;99.90;;;;;;5075170;28;19939;-64
2022/06/07 02:06:36;;;;;;;;;;;10.90;99.90;;;;;;5071469;28;19954;-63
2022/06/07 02:09:02;;;;;;;;;;;10.90;99.90;;;;;;5062206;28;19912;-63
2022/06/07 02:11:28;;;;;;;;;;;10.80;99.90;;;;;;5055924;28;19919;-64
2022/06/07 02:13:53;;;;;;;;;;;10.80;99.90;;;;;;5079603;28;19913;-63
2022/06/07 02:16:20;;;;;;;;;;;11.00;99.90;;;;;;5081689;28;19944;-63
2022/06/07 02:18:46;;;;;;;;;;;10.90;99.90;;;;;;5080714;28;19912;-64
2022/06/07 02:21:12;;;;;;;;;;;10.90;99.90;;;;;;5058477;28;19916;-63
2022/06/07 02:23:37;;;;;;;;;;;10.90;99.90;;;;;;5081404;28;19951;-64
2022/06/07 02:26:11;;;;;;;;;;;10.80;99.90;;;;;;5061698;28;19912;-64
2022/06/07 02:28:38;;;;;;;;;;;10.80;99.90;;;;;;5057091;28;19927;-64
2022/06/07 02:31:04;;;;;;;;;;;10.80;99.90;;;;;;5082217;28;19917;-62
2022/06/07 02:33:30;;;;;;;;;;;10.70;99.90;;;;;;5081136;28;19919;-63
2022/06/07 02:35:56;;;;;;;;;;;10.70;99.90;;;;;;5082021;28;19924;-63
2022/06/07 02:38:22;;;;;;;;;;;10.60;99.90;;;;;;5080542;28;19921;-64
2022/06/07 02:40:49;;;;;;;;;;;10.60;99.90;;;;;;5079863;28;19924;-64
2022/06/07 02:43:15;;;;;;;;;;;10.60;99.90;;;;;;5079951;28;19913;-63
2022/06/07 02:45:40;;;;;;;;;;;10.50;99.90;;;;;;5080316;28;19947;-63
2022/06/07 02:48:07;;;;;;;;;;;10.40;99.90;;;;;;5059934;28;20319;-64
2022/06/07 02:50:33;;;;;;;;;;;10.40;99.90;;;;;;5079682;28;19976;-64
2022/06/07 02:52:59;;;;;;;;;;;10.30;99.90;;;;;;5080551;28;19912;-64
2022/06/07 02:55:25;;;;;;;;;;;10.30;99.90;;;;;;5081003;28;19995;-64
2022/06/07 02:57:50;;;;;;;;;;;10.20;99.90;;;;;;5080737;28;19916;-63
2022/06/07 03:00:16;;;;;;;;;;;10.10;99.90;;;;;;5078606;28;19913;-63
2022/06/07 03:02:42;;;;;;;;;;;10.10;99.90;;;;;;5082054;28;19912;-64
2022/06/07 03:05:10;;;;;;;;;;;10.10;99.90;;;;;;5082021;28;19916;-64
2022/06/07 03:07:36;;;;;;;;;;;10.10;99.90;;;;;;5056184;28;20016;-63
2022/06/07 03:10:02;;;;;;;;;;;10.20;99.90;;;;;;5076522;28;19932;-63
2022/06/07 03:12:28;;;;;;;;;;;10.20;99.90;;;;;;5080238;28;19913;-64
2022/06/07 03:14:53;;;;;;;;;;;10.20;99.90;;;;;;5080021;28;19912;-63
2022/06/07 03:17:19;;;;;;;;;;;10.20;99.90;;;;;;5077784;28;20294;-63
2022/06/07 03:19:45;;;;;;;;;;;10.10;99.90;;;;;;5079372;28;19935;-64
2022/06/07 03:22:12;;;;;;;;;;;10.10;99.90;;;;;;5081017;28;20416;-63
2022/06/07 03:24:38;;;;;;;;;;;10.00;99.90;;;;;;5079094;28;19913;-63
2022/06/07 03:27:04;;;;;;;;;;;10.00;99.90;;;;;;5077074;28;19923;-64
2022/06/07 03:29:29;;;;;;;;;;;9.90;99.90;;;;;;5065040;28;20619;-64
2022/06/07 03:31:55;;;;;;;;;;;10.00;99.90;;;;;;5080550;28;19976;-63
2022/06/07 03:34:21;;;;;;;;;;;9.90;99.90;;;;;;5079928;28;19923;-63
2022/06/07 03:36:46;;;;;;;;;;;9.80;99.90;;;;;;5080031;28;19913;-63
2022/06/07 03:39:12;;;;;;;;;;;9.70;99.90;;;;;;5082820;28;19979;-63
2022/06/07 03:41:37;;;;;;;;;;;9.70;99.90;;;;;;5075923;28;19920;-63
2022/06/07 03:44:03;;;;;;;;;;;9.60;99.90;;;;;;5058305;28;19912;-62
2022/06/07 03:46:34;;;;;;;;;;;9.60;99.90;;;;;;5078008;28;19963;-62
2022/06/07 03:49:00;;;;;;;;;;;9.50;99.90;;;;;;5080112;28;19920;-63
2022/06/07 03:51:27;;;;;;;;;;;9.50;99.90;;;;;;5079759;28;19934;-63
2022/06/07 03:53:53;;;;;;;;;;;9.60;99.90;;;;;;5079943;28;19934;-64
2022/06/07 03:56:19;;;;;;;;;;;9.60;99.90;;;;;;5079031;28;19920;-63
2022/06/07 03:58:45;;;;;;;;;;;9.50;99.90;;;;;;5080620;28;19942;-64
2022/06/07 04:01:17;;;;;;;;;;;9.40;99.90;;;;;;5075988;28;19913;-64
2022/06/07 04:03:44;;;;;;;;;;;9.40;99.90;;;;;;5075946;28;19916;-64
2022/06/07 04:06:19;;;;;;;;;;;9.40;99.90;;;;;;5077487;28;19939;-64
2022/06/07 04:08:45;;;;;;;;;;;9.30;99.90;;;;;;5079869;28;19929;-64
2022/06/07 04:11:11;;;;;;;;;;;9.30;99.90;;;;;;5084291;28;19927;-64
2022/06/07 04:13:37;;;;;;;;;;;9.40;99.90;;;;;;5078988;28;19913;-64
2022/06/07 04:16:06;;;;;;;;;;;9.50;99.90;;;;;;5081055;28;20349;-64
2022/06/07 04:18:32;;;;;;;;;;;9.50;99.90;;;;;;5082154;28;19912;-64
2022/06/07 04:20:59;;;;;;;;;;;9.50;99.90;;;;;;5082104;28;20310;-64
2022/06/07 04:23:24;;;;;;;;;;;9.50;99.90;;;;;;5083244;28;19916;-64
2022/06/07 04:25:50;;;;;;;;;;;9.40;99.90;;;;;;5080611;28;19928;-64
2022/06/07 04:28:15;;;;;;;;;;;9.40;99.90;;;;;;5084462;28;19964;-64
2022/06/07 04:30:42;;;;;;;;;;;9.40;99.90;;;;;;5076485;28;20433;-64
2022/06/07 04:33:08;;;;;;;;;;;9.40;99.90;;;;;;5077950;28;19913;-63
2022/06/07 04:35:33;;;;;;;;;;;9.40;99.90;;;;;;5062094;28;19946;-65
2022/06/07 04:37:59;;;;;;;;;;;9.40;99.90;;;;;;5077710;28;20438;-63
2022/06/07 04:40:25;;;;;;;;;;;9.40;99.90;;;;;;5060836;28;19917;-64
2022/06/07 04:42:50;;;;;;;;;;;9.40;99.90;;;;;;5082318;28;19923;-64
2022/06/07 04:45:16;;;;;;;;;;;9.40;99.90;;;;;;5080743;28;19995;-63
2022/06/07 04:47:43;;;;;;;;;;;9.40;99.90;;;;;;5081318;28;19920;-64
2022/06/07 04:50:10;;;;;;;;;;;9.40;99.90;;;;;;5061679;28;19974;-63
2022/06/07 04:52:36;;;;;;;;;;;9.50;99.90;;;;;;5081555;28;19913;-63
2022/06/07 04:55:01;;;;;;;;;;;9.50;99.90;;;;;;5081905;28;19948;-62
2022/06/07 04:57:28;;;;;;;;;;;9.50;99.90;;;;;;5084791;28;19913;-64
2022/06/07 04:59:54;;;;;;;;;;;9.40;99.90;;;;;;5082047;28;19943;-63
2022/06/07 05:02:20;;;;;;;;;;;9.40;99.90;;;;;;5083226;28;19912;-63
2022/06/07 05:04:45;;;;;;;;;;;9.40;99.90;;;;;;5082705;28;19943;-64
2022/06/07 05:07:11;;;;;;;;;;;9.40;99.90;;;;;;5080138;28;19976;-63
2022/06/07 05:09:37;;;;;;;;;;;9.50;99.90;;;;;;5082995;28;19919;-64
2022/06/07 05:12:03;;;;;;;;;;;9.60;99.90;;;;;;5076258;28;19913;-64
2022/06/07 05:14:28;;;;;;;;;;;9.80;99.90;;;;;;5062595;28;19912;-63
2022/06/07 05:16:54;;;;;;;;;;;9.90;99.90;;;;;;5081009;28;19932;-63
2022/06/07 05:19:20;;;;;;;;;;;10.00;99.90;;;;;;5082722;28;20295;-64
2022/06/07 05:21:46;;;;;;;;;;;10.10;99.90;;;;;;5078417;28;19924;-63
2022/06/07 05:24:12;;;;;;;;;;;10.20;99.90;;;;;;5080170;28;19913;-63
2022/06/07 05:26:42;;;;;;;;;;;10.30;99.90;;;;;;5079704;28;19919;-63
2022/06/07 05:29:15;;;;;;;;;;;10.30;99.90;;;;;;5083930;28;19912;-63
2022/06/07 05:31:40;;;;;;;;;;;10.20;99.90;;;;;;5081762;28;19912;-64
2022/06/07 05:34:06;;;;;;;;;;;10.20;99.90;;;;;;5079492;28;19916;-63
2022/06/07 05:36:31;;;;;;;;;;;10.20;99.90;;;;;;5081195;28;19977;-64
2022/06/07 05:38:57;;;;;;;;;;;10.20;99.90;;;;;;5084727;28;19944;-64
2022/06/07 05:41:29;;;;;;;;;;;10.30;99.90;;;;;;5078648;28;19949;-64
2022/06/07 05:43:55;;;;;;;;;;;10.40;99.90;;;;;;5062239;28;20371;-64
2022/06/07 05:46:21;;;;;;;;;;;10.40;99.90;;;;;;5082010;28;20332;-63
2022/06/07 05:48:46;;;;;;;;;;;10.50;99.90;;;;;;5077619;28;19921;-63
2022/06/07 05:51:13;;;;;;;;;;;10.60;99.90;;;;;;5082312;28;19928;-64
2022/06/07 05:53:38;;;;;;;;;;;10.70;99.90;;;;;;5081458;28;19921;-64
2022/06/07 05:56:05;;;;;;;;;;;10.70;99.90;;;;;;5066315;28;19979;-63
2022/06/07 05:58:31;;;;;;;;;;;10.80;99.90;;;;;;5084443;28;19916;-64
2022/06/07 06:00:56;;;;;;;;;;;10.90;99.90;;;;;;5079214;28;19913;-65
2022/06/07 06:03:22;;;;;;;;;;;11.00;99.90;;;;;;5083968;28;19913;-63
2022/06/07 06:05:48;;;;;;;;;;;11.00;99.90;;;;;;5078712;28;19970;-64
2022/06/07 06:11:09;;;;;;;;;;;11.20;99.90;;;;;;5073347;28;19984;-63
2022/06/07 06:13:35;;;;;;;;;;;11.20;99.90;;;;;;5065995;28;19920;-63
2022/06/07 06:16:05;;;;;;;;;;;11.40;99.90;;;;;;5070488;28;20009;-63
2022/06/07 06:18:31;;;;;;;;;;;11.50;99.90;;;;;;5078423;28;19927;-63
2022/06/07 06:20:57;;;;;;;;;;;11.60;99.90;;;;;;5076910;28;20010;-63
2022/06/07 06:23:22;;;;;;;;;;;11.80;99.90;;;;;;5076862;28;19951;-64
2022/06/07 06:25:48;;;;;;;;;;;11.90;99.90;;;;;;5079773;28;19923;-63
2022/06/07 06:28:13;;;;;;;;;;;12.00;99.90;;;;;;5077913;28;20449;-64
2022/06/07 06:30:42;;;;;;;;;;;12.10;99.90;;;;;;5077173;28;19951;-64
2022/06/07 06:33:07;;;;;;;;;;;12.20;99.90;;;;;;5078716;28;19927;-64
2022/06/07 06:35:33;;;;;;;;;;;12.40;99.90;;;;;;5080229;28;20015;-63
2022/06/07 06:37:58;;;;;;;;;;;12.50;99.90;;;;;;5077783;28;19928;-64
2022/06/07 06:40:24;;;;;;;;;;;12.60;99.90;;;;;;5070929;28;19916;-65
2022/06/07 06:42:50;;;;;;;;;;;12.70;99.90;;;;;;5061819;28;19912;-64
2022/06/07 06:45:15;;;;;;;;;;;12.90;99.90;;;;;;5063768;28;19921;-64
2022/06/07 06:47:41;;;;;;;;;;;13.00;99.90;;;;;;5076423;28;19916;-65
2022/06/07 06:50:07;;;;;;;;;;;13.20;99.90;;;;;;5059941;28;20743;-64
2022/06/07 06:52:32;;;;;;;;;;;13.30;99.90;;;;;;5076189;28;20330;-63
2022/06/07 06:54:58;;;;;;;;;;;13.40;99.90;;;;;;5076494;28;20063;-64
2022/06/07 06:57:23;;;;;;;;;;;13.60;99.90;;;;;;5072206;28;19912;-63
2022/06/07 06:59:49;;;;;;;;;;;13.70;99.90;;;;;;5072695;28;19944;-65
2022/06/07 07:02:15;;;;;;;;;;;13.80;99.90;;;;;;5066787;28;19920;-65
2022/06/07 07:04:40;;;;;;;;;;;13.90;99.90;;;;;;5069598;28;20397;-65
2022/06/07 07:07:06;;;;;;;;;;;14.00;99.90;;;;;;5044026;28;20388;-64
2022/06/07 07:09:31;;;;;;;;;;;14.20;99.90;;;;;;5045882;28;19931;-65
2022/06/07 07:11:57;;;;;;;;;;;14.50;99.90;;;;;;5051731;28;19923;-66
2022/06/07 07:14:22;;;;;;;;;;;14.70;99.90;;;;;;5048544;28;19916;-64
2022/06/07 07:16:50;;;;;;;;;;;14.80;99.90;;;;;;5072579;28;19934;-64
2022/06/07 07:19:16;;;;;;;;;;;15.00;99.90;;;;;;5065674;28;19921;-64
2022/06/07 07:21:43;;;;;;;;;;;15.00;99.90;;;;;;5047499;28;19977;-65
2022/06/07 07:24:19;;;;;;;;;;;15.10;99.90;;;;;;5069912;28;19927;-65
2022/06/07 07:26:46;;;;;;;;;;;15.20;99.90;;;;;;5060564;28;20018;-65
2022/06/07 07:29:12;;;;;;;;;;;15.30;99.90;;;;;;5067262;28;19982;-65
2022/06/07 07:31:38;;;;;;;;;;;15.40;99.90;;;;;;5074797;28;20003;-64
2022/06/07 07:34:07;;;;;;;;;;;15.60;99.90;;;;;;5077591;28;19912;-64
2022/06/07 07:36:33;;;;;;;;;;;15.60;99.90;;;;;;5074427;28;19913;-64
2022/06/07 07:38:58;;;;;;;;;;;15.70;99.90;;;;;;5073394;28;19939;-64
2022/06/07 07:41:24;;;;;;;;;;;15.80;99.90;;;;;;5066551;28;20351;-64
2022/06/07 07:43:51;;;;;;;;;;;15.90;99.90;;;;;;5052905;28;20007;-65
2022/06/07 07:46:17;;;;;;;;;;;16.10;99.90;;;;;;5071663;28;19913;-63
2022/06/07 07:48:47;;;;;;;;;;;16.20;99.90;;;;;;5039096;28;20310;-65
2022/06/07 07:51:18;;;;;;;;;;;16.40;99.90;;;;;;5052316;28;19932;-64
2022/06/07 07:53:45;;;;;;;;;;;16.30;99.90;;;;;;5034579;28;19916;-64
2022/06/07 07:56:10;;;;;;;;;;;16.50;99.90;;;;;;5046210;28;19952;-64
2022/06/07 07:58:36;;;;;;;;;;;16.60;99.90;;;;;;5041504;28;19955;-64
2022/06/07 08:01:07;;;;;;;;;;;16.80;99.90;;;;;;5042797;28;19917;-66
2022/06/07 08:03:33;;;;;;;;;;;16.80;99.90;;;;;;5044311;28;19913;-65
2022/06/07 08:05:58;;;;;;;;;;;16.90;99.90;;;;;;5046382;28;19923;-65
2022/06/07 08:08:24;;;;;;;;;;;17.10;99.90;;;;;;5050088;28;19943;-65
2022/06/07 08:10:49;;;;;;;;;;;17.30;99.90;;;;;;5049780;28;19917;-65
2022/06/07 08:13:15;;;;;;;;;;;17.30;99.90;;;;;;5049665;28;19913;-65
2022/06/07 08:15:41;;;;;;;;;;;17.50;99.90;;;;;;5041836;28;19920;-65
2022/06/07 08:18:06;;;;;;;;;;;17.70;99.90;;;;;;5050492;28;19920;-65
2022/06/07 08:20:33;;;;;;;;;;;17.90;99.90;;;;;;5045938;28;19913;-65
2022/06/07 08:22:59;;;;;;;;;;;17.90;99.90;;;;;;5048498;28;19916;-65
2022/06/07 08:25:25;;;;;;;;;;;18.00;99.90;;;;;;5047137;28;19951;-65
2022/06/07 08:27:50;;;;;;;;;;;18.00;99.90;;;;;;5048154;28;19951;-65
2022/06/07 08:30:16;;;;;;;;;;;18.20;99.90;;;;;;5049961;28;19920;-65
2022/06/07 08:32:41;;;;;;;;;;;18.30;99.90;;;;;;5047112;28;19913;-66
2022/06/07 08:37:56;;;;;;;;;;;18.50;99.90;;;;;;5044823;28;20275;-66
2022/06/07 08:40:28;;;;;;;;;;;18.50;99.90;;;;;;5052458;28;19972;-64
2022/06/07 08:42:56;;;;;;;;;;;18.20;99.90;;;;;;5061052;28;19900;-64
2022/06/07 08:45:24;;;;;;;;;;;18.30;99.90;;;;;;5061352;28;19921;-65
2022/06/07 08:47:52;;;;;;;;;;;18.60;99.90;;;;;;5066231;28;19936;-66
2022/06/07 08:50:18;;;;;;;;;;;19.00;99.90;;;;;;5070410;28;20072;-64
2022/06/07 08:52:44;;;;;;;;;;;19.10;99.90;;;;;;5068578;28;19921;-65
2022/06/07 08:55:12;;;;;;;;;;;19.20;99.90;;;;;;5062331;28;19916;-65
2022/06/07 08:57:38;;;;;;;;;;;19.20;99.90;;;;;;5048651;28;19921;-64
2022/06/07 09:00:15;;;;;;;;;;;19.20;99.90;;;;;;5059984;28;19920;-64
2022/06/07 09:02:45;;;;;;;;;;;19.10;99.90;;;;;;5064955;28;19913;-64
2022/06/07 09:05:15;;;;;;;;;;;19.20;99.90;;;;;;5053464;28;19925;-65
2022/06/07 09:07:41;;;;;;;;;;;19.30;99.90;;;;;;5065516;28;19948;-65
2022/06/07 09:13:06;;;;;;;;;;;19.30;99.90;;;;;;5064092;28;19919;-65
2022/06/07 09:15:32;;;;;;;;;;;19.40;99.90;;;;;;5061607;28;19935;-65
2022/06/07 09:17:59;;;;;;;;;;;19.40;99.90;;;;;;5066251;28;20384;-64
2022/06/07 09:20:28;;;;;;;;;;;19.60;99.90;;;;;;5066345;28;19913;-64
2022/06/07 09:22:54;;;;;;;;;;;19.50;99.90;;;;;;5049273;28;19996;-65
2022/06/07 09:25:23;;;;;;;;;;;19.40;99.90;;;;;;5060291;28;19927;-64
2022/06/07 09:27:49;;;;;;;;;;;19.30;99.90;;;;;;5060947;28;19921;-65
2022/06/07 09:30:24;;;;;;;;;;;19.50;99.90;;;;;;5059765;28;20228;-65
2022/06/07 09:32:51;;;;;;;;;;;19.60;99.90;;;;;;5048621;28;19927;-65
2022/06/07 09:35:37;;;;;;;;;;;19.90;99.90;;;;;;5059530;28;19912;-65
2022/06/07 09:38:10;;;;;;;;;;;20.30;99.90;;;;;;5054544;28;19947;-65
2022/06/07 09:40:37;;;;;;;;;;;20.30;99.90;;;;;;5059333;28;20274;-65
2022/06/07 09:43:15;;;;;;;;;;;20.20;99.90;;;;;;5061019;28;20047;-65
2022/06/07 09:45:43;;;;;;;;;;;20.10;99.90;;;;;;5053381;28;19917;-65
2022/06/07 09:48:18;;;;;;;;;;;20.30;99.90;;;;;;5061527;28;19978;-64
2022/06/07 09:50:53;;;;;;;;;;;20.50;99.90;;;;;;5037600;28;19921;-65
2022/06/07 09:53:18;;;;;;;;;;;20.80;99.90;;;;;;5041033;28;19914;-65
2022/06/07 09:55:58;;;;;;;;;;;21.10;99.90;;;;;;5040946;28;20327;-66
2022/06/07 09:58:23;;;;;;;;;;;21.10;99.90;;;;;;5036900;28;19914;-66
2022/06/07 10:01:01;;;;;;;;;;;21.40;99.90;;;;;;5034021;28;19952;-64
2022/06/07 10:03:41;;;;;;;;;;;21.50;99.90;;;;;;5033031;28;19940;-65
2022/06/07 10:06:07;;;;;;;;;;;21.70;99.90;;;;;;5037232;28;19932;-67
2022/06/07 10:08:36;;;;;;;;;;;21.70;99.90;;;;;;5032953;28;19917;-65
2022/06/07 10:11:19;;;;;;;;;;;21.50;99.90;;;;;;5036868;28;19917;-65
2022/06/07 10:14:01;;;;;;;;;;;21.40;99.90;;;;;;5043343;28;19933;-65
2022/06/07 10:16:32;;;;;;;;;;;21.40;99.90;;;;;;5039013;28;21133;-65
2022/06/07 10:19:08;;;;;;;;;;;21.40;99.90;;;;;;5039774;28;19917;-65
2022/06/07 10:21:34;;;;;;;;;;;21.00;99.90;;;;;;5040462;28;19914;-66
2022/06/07 10:24:02;;;;;;;;;;;20.80;99.90;;;;;;5044477;28;19917;-66
2022/06/07 10:26:28;;;;;;;;;;;21.00;99.90;;;;;;5043161;28;20000;-65
2022/06/07 10:29:12;;;;;;;;;;;21.30;99.90;;;;;;5045589;28;19917;-64
2022/06/07 10:31:42;;;;;;;;;;;21.60;99.90;;;;;;5031504;28;20423;-65
2022/06/07 10:34:27;;;;;;;;;;;21.90;99.90;;;;;;5031596;28;19918;-65
2022/06/07 10:36:59;;;;;;;;;;;21.90;99.90;;;;;;5030797;28;19913;-65
2022/06/07 10:39:38;;;;;;;;;;;22.10;99.90;;;;;;5038201;28;19913;-65
2022/06/07 10:42:04;;;;;;;;;;;22.10;99.90;;;;;;5037273;28;20283;-65
2022/06/07 10:44:33;;;;;;;;;;;22.00;99.90;;;;;;5044954;28;19943;-65
2022/06/07 10:47:08;;;;;;;;;;;22.00;99.90;;;;;;5043954;28;19913;-65
2022/06/07 10:49:46;;;;;;;;;;;21.90;99.90;;;;;;5058064;28;20030;-66
2022/06/07 10:52:20;;;;;;;;;;;21.60;99.90;;;;;;5077017;28;19913;-65
2022/06/07 10:55:05;;;;;;;;;;;21.50;99.90;;;;;;5077644;28;19931;-65
2022/06/07 10:57:47;;;;;;;;;;;21.50;99.90;;;;;;5065056;28;19912;-65
2022/06/07 11:00:17;;;;;;;;;;;21.70;99.90;;;;;;5082006;28;19980;-65
2022/06/07 11:03:02;;;;;;;;;;;21.80;99.90;;;;;;5082744;28;19935;-66
2022/06/07 11:10:58;;;;;;;;;;;22.80;99.90;;;;;;5077969;28;19922;-66
2022/06/07 11:13:27;;;;;;;;;;;22.60;99.90;;;;;;5077670;28;19965;-65
2022/06/07 11:16:12;;;;;;;;;;;22.40;99.90;;;;;;5076477;28;19920;-65
2022/06/07 11:18:40;;;;;;;;;;;22.50;99.90;;;;;;5057588;28;19912;-66
2022/06/07 11:21:05;;;;;;;;;;;22.70;99.90;;;;;;5082970;28;19927;-65
2022/06/07 11:23:33;;;;;;;;;;;22.90;98.00;;;;;;5081185;28;19912;-65
2022/06/07 11:26:09;;;;;;;;;;;23.20;97.90;;;;;;5080678;28;20338;-64
2022/06/07 11:28:43;;;;;;;;;;;23.20;98.10;;;;;;5083475;28;19925;-65
2022/06/07 11:31:15;;;;;;;;;;;23.40;97.30;;;;;;5082825;28;20296;-65
2022/06/07 11:33:42;;;;;;;;;;;23.60;97.10;;;;;;5083709;28;19916;-65
2022/06/07 11:36:20;;;;;;;;;;;23.50;97.00;;;;;;5083648;28;20028;-65
2022/06/07 11:41:40;;;;;;;;;;;23.40;97.50;;;;;;5071021;28;19921;-65
2022/06/07 11:44:10;;;;;;;;;;;23.30;97.90;;;;;;5079356;28;19920;-65
2022/06/07 11:46:35;;;;;;;;;;;23.20;97.00;;;;;;5079235;28;19916;-65
2022/06/07 11:51:50;;;;;;;;;;;22.40;99.90;;;;;;5077454;28;19912;-65
2022/06/07 11:54:16;;;;;;;;;;;21.90;99.90;;;;;;5083727;28;19913;-65
2022/06/07 11:56:43;;;;;;;;;;;21.80;99.90;;;;;;5065406;28;19912;-65
2022/06/07 11:59:18;;;;;;;;;;;21.80;99.90;;;;;;5082383;28;19915;-65
2022/06/07 12:01:47;;;;;;;;;;;21.90;99.90;;;;;;5065529;28;19913;-66
2022/06/07 12:04:28;;;;;;;;;;;22.10;99.90;;;;;;5083598;28;19912;-65
2022/06/07 12:07:14;;;;;;;;;;;22.00;99.90;;;;;;5069418;28;19934;-65
2022/06/07 12:09:45;;;;;;;;;;;22.00;99.90;;;;;;5077931;28;19916;-66
2022/06/07 12:12:18;;;;;;;;;;;22.00;99.90;;;;;;5060497;28;19970;-66
2022/06/07 12:14:45;;;;;;;;;;;22.30;99.90;;;;;;5079021;28;19960;-66
2022/06/07 12:17:20;;;;;;;;;;;22.80;99.90;;;;;;5067562;28;19920;-65
2022/06/07 12:19:46;;;;;;;;;;;23.20;99.60;;;;;;5082582;28;19912;-66
2022/06/07 12:22:14;;;;;;;;;;;23.30;99.40;;;;;;5061654;28;19921;-65
2022/06/07 12:24:44;;;;;;;;;;;23.30;97.90;;;;;;5086508;28;19984;-65
2022/06/07 12:27:31;;;;;;;;;;;23.30;98.00;;;;;;5086291;28;19935;-65
2022/06/07 12:30:02;;;;;;;;;;;23.60;96.70;;;;;;5085293;28;19928;-65
2022/06/07 12:32:31;;;;;;;;;;;23.80;96.60;;;;;;5086951;28;19912;-65
2022/06/07 12:35:04;;;;;;;;;;;23.80;95.20;;;;;;5083795;28;20138;-65
2022/06/07 12:37:31;;;;;;;;;;;23.70;95.10;;;;;;5070097;28;19999;-65
2022/06/07 12:39:57;;;;;;;;;;;23.90;94.40;;;;;;5068436;28;20022;-66
2022/06/07 12:42:24;;;;;;;;;;;23.60;94.50;;;;;;5067386;28;19924;-65
2022/06/07 12:44:58;;;;;;;;;;;23.30;95.50;;;;;;5080606;28;19921;-65
2022/06/07 12:47:26;;;;;;;;;;;23.20;96.30;;;;;;5085366;28;19977;-65
2022/06/07 12:49:52;;;;;;;;;;;23.30;96.60;;;;;;5084815;28;19920;-65
2022/06/07 12:52:26;;;;;;;;;;;23.50;95.50;;;;;;5066570;28;19924;-64
2022/06/07 12:54:53;;;;;;;;;;;23.70;94.40;;;;;;5080576;28;19920;-66
2022/06/07 12:57:39;;;;;;;;;;;23.80;93.70;;;;;;5069258;28;19924;-65
2022/06/07 13:00:11;;;;;;;;;;;24.00;93.70;;;;;;5057102;28;19916;-65
2022/06/07 13:02:40;;;;;;;;;;;24.30;93.20;;;;;;5068966;28;19919;-65
2022/06/07 13:05:13;;;;;;;;;;;24.40;93.70;;;;;;5069988;28;19952;-66
2022/06/07 13:07:44;;;;;;;;;;;24.50;93.60;;;;;;5068398;28;19929;-66
2022/06/07 13:10:12;;;;;;;;;;;24.60;93.40;;;;;;5066482;28;19912;-65
2022/06/07 13:12:43;;;;;;;;;;;24.90;93.10;;;;;;5062799;28;19919;-65
2022/06/07 13:15:27;;;;;;;;;;;24.80;92.40;;;;;;5067235;28;20374;-65
2022/06/07 13:17:55;;;;;;;;;;;24.60;92.10;;;;;;5065198;28;20006;-65
2022/06/07 13:20:35;;;;;;;;;;;24.20;92.80;;;;;;5066054;28;19913;-64
2022/06/07 13:23:09;;;;;;;;;;;24.00;93.10;;;;;;5063542;28;20398;-66
2022/06/07 13:25:35;;;;;;;;;;;23.90;93.60;;;;;;5049958;28;20098;-66
2022/06/07 13:28:05;;;;;;;;;;;23.60;94.50;;;;;;5064940;28;20347;-65
2022/06/07 13:30:31;;;;;;;;;;;23.40;95.20;;;;;;5063750;28;19959;-66
2022/06/07 13:33:17;;;;;;;;;;;23.30;95.00;;;;;;5064568;28;19917;-64
2022/06/07 13:35:50;;;;;;;;;;;23.10;95.50;;;;;;5067874;28;19966;-66
2022/06/07 13:38:24;;;;;;;;;;;23.00;96.20;;;;;;5067555;28;19921;-66
2022/06/07 13:41:01;;;;;;;;;;;23.10;96.70;;;;;;5067077;28;19916;-65
2022/06/07 13:43:26;;;;;;;;;;;23.10;96.70;;;;;;5064826;28;19927;-65
2022/06/07 13:45:53;;;;;;;;;;;23.50;96.00;;;;;;5068322;28;19920;-65
2022/06/07 13:54:12;;;;;;;;;;;23.90;94.60;;;;;;5064494;28;19935;-64
2022/06/07 13:56:37;;;;;;;;;;;23.70;95.10;;;;;;5062667;28;19913;-65
2022/06/07 13:59:04;;;;;;;;;;;23.60;95.40;;;;;;5046452;28;19981;-65
2022/06/07 14:01:39;;;;;;;;;;;24.10;94.80;;;;;;5040285;28;20019;-66
2022/06/07 14:04:11;;;;;;;;;;;24.40;94.00;;;;;;5068392;28;19917;-65
2022/06/07 14:06:38;;;;;;;;;;;24.00;94.60;;;;;;5063017;28;19913;-65
2022/06/07 14:09:12;;;;;;;;;;;23.90;95.10;;;;;;5073368;28;19916;-66
2022/06/07 14:11:38;;;;;;;;;;;23.80;95.00;;;;;;5050249;28;20356;-65
2022/06/07 14:14:04;;;;;;;;;;;24.10;94.90;;;;;;5063924;28;19913;-65
2022/06/07 14:16:39;;;;;;;;;;;24.30;94.30;;;;;;5052204;28;19920;-67
2022/06/07 14:19:06;;;;;;;;;;;24.50;93.70;;;;;;5069164;28;19967;-64
2022/06/07 14:21:32;;;;;;;;;;;24.60;93.60;;;;;;5053072;28;19924;-65
2022/06/07 14:23:58;;;;;;;;;;;24.00;93.90;;;;;;5061048;28;20003;-65
2022/06/07 14:26:23;;;;;;;;;;;23.40;95.30;;;;;;5048485;28;20324;-65
2022/06/07 14:28:49;;;;;;;;;;;23.10;96.40;;;;;;5065010;28;19967;-66
2022/06/07 14:31:17;;;;;;;;;;;23.10;96.70;;;;;;5064421;28;19913;-66
2022/06/07 14:33:44;;;;;;;;;;;23.50;96.50;;;;;;5048097;28;19912;-66
2022/06/07 14:36:09;;;;;;;;;;;23.70;96.00;;;;;;5065145;28;20018;-66
2022/06/07 14:38:35;;;;;;;;;;;23.50;96.60;;;;;;5063054;28;20062;-65
2022/06/07 14:41:01;;;;;;;;;;;23.30;97.20;;;;;;5070347;28;20379;-66
2022/06/07 14:43:27;;;;;;;;;;;23.10;97.70;;;;;;5050192;28;20323;-66
2022/06/07 14:45:59;;;;;;;;;;;22.80;97.80;;;;;;5048927;28;19932;-64
2022/06/07 14:48:27;;;;;;;;;;;22.50;98.80;;;;;;5061394;28;19967;-65
2022/06/07 14:50:54;;;;;;;;;;;22.50;99.90;;;;;;5049657;28;19928;-66
2022/06/07 14:53:20;;;;;;;;;;;22.50;99.90;;;;;;5066440;28;20394;-65
2022/06/07 14:55:46;;;;;;;;;;;22.70;99.90;;;;;;5057629;28;19919;-65
2022/06/07 14:58:12;;;;;;;;;;;22.70;99.90;;;;;;5070634;28;20007;-66